createdAt,value
2023-05-15T00:02:51.191Z,5.50
2023-05-15T00:07:45.978Z,6.33
2023-05-15T00:12:39.273Z,5.37
2023-05-15T00:17:32.597Z,5.90
2023-05-15T00:22:26.296Z,6.30
2023-05-15T00:27:21.058Z,6.90
2023-05-15T00:32:14.401Z,6.47
2023-05-15T00:37:08.556Z,6.57
2023-05-15T00:42:03.739Z,8.10
2023-05-15T00:47:01.657Z,6.93
2023-05-15T00:51:55.076Z,6.93
2023-05-15T00:56:51.985Z,6.40
2023-05-15T01:01:45.415Z,6.57
2023-05-15T01:06:40.175Z,6.07
2023-05-15T01:11:36.996Z,5.70
2023-05-15T01:16:31.032Z,5.60
2023-05-15T01:22:20.239Z,6.17
2023-05-15T01:27:24.322Z,5.70
2023-05-15T01:32:25.217Z,4.90
2023-05-15T01:37:24.497Z,5.20
2023-05-15T01:42:23.012Z,4.50
2023-05-15T01:47:21.520Z,3.97
2023-05-15T01:52:19.994Z,4.20
2023-05-15T01:57:15.592Z,4.03
2023-05-15T02:02:13.560Z,4.17
2023-05-15T02:07:08.613Z,3.87
2023-05-15T02:12:03.553Z,4.30
2023-05-15T02:16:57.019Z,4.37
2023-05-15T02:21:51.726Z,5.07
2023-05-15T02:27:01.837Z,5.90
2023-05-15T02:32:09.430Z,4.77
2023-05-15T02:37:09.313Z,4.77
2023-05-15T02:42:03.734Z,4.27
2023-05-15T02:46:57.645Z,4.17
2023-05-15T02:51:51.910Z,4.87
2023-05-15T02:56:46.522Z,4.23
2023-05-15T03:01:39.853Z,3.90
2023-05-15T03:06:33.165Z,4.00
2023-05-15T03:11:26.562Z,3.93
2023-05-15T03:16:21.386Z,4.13
2023-05-15T03:21:14.794Z,4.23
2023-05-15T03:26:08.073Z,4.10
2023-05-15T03:31:01.413Z,5.43
2023-05-15T03:35:56.065Z,4.80
2023-05-15T03:40:51.144Z,4.50
2023-05-15T03:45:45.149Z,5.40
2023-05-15T03:50:39.283Z,7.13
2023-05-15T03:55:34.286Z,6.37
2023-05-15T04:00:27.717Z,7.47
2023-05-15T04:05:21.910Z,6.97
2023-05-15T04:10:15.485Z,6.70
2023-05-15T04:15:22.311Z,6.90
2023-05-15T04:20:19.029Z,6.10
2023-05-15T04:25:14.622Z,5.63
2023-05-15T04:30:09.717Z,4.70
2023-05-15T04:35:06.417Z,4.43
2023-05-15T04:39:59.724Z,4.30
2023-05-15T04:44:53.510Z,3.70
2023-05-15T04:49:47.811Z,3.70
2023-05-15T04:54:42.969Z,3.60
2023-05-15T04:59:36.237Z,3.83
2023-05-15T05:04:29.686Z,4.50
2023-05-15T05:09:23.055Z,4.90
2023-05-15T05:14:17.872Z,5.60
2023-05-15T05:19:11.283Z,5.03
2023-05-15T05:24:04.897Z,5.33
2023-05-15T05:28:58.258Z,4.73
2023-05-15T05:33:52.952Z,4.70
2023-05-15T05:38:46.182Z,4.57
2023-05-15T05:43:39.532Z,5.07
2023-05-15T05:48:32.924Z,4.93
2023-05-15T05:53:27.725Z,6.03
2023-05-15T05:58:25.417Z,6.30
2023-05-15T06:03:19.689Z,5.70
2023-05-15T06:08:13.087Z,5.60
2023-05-15T06:13:07.950Z,5.90
2023-05-15T06:18:01.280Z,5.70
2023-05-15T06:22:54.597Z,5.63
2023-05-15T06:27:48.145Z,6.00
2023-05-15T06:32:43.631Z,5.87
2023-05-15T06:37:38.252Z,6.47
2023-05-15T06:42:31.608Z,6.53
2023-05-15T06:47:25.171Z,6.77
2023-05-15T06:52:19.921Z,6.90
2023-05-15T06:57:13.224Z,7.07
2023-05-15T07:02:06.828Z,5.60
2023-05-15T07:07:00.286Z,4.63
2023-05-15T07:11:55.018Z,4.00
2023-05-15T07:16:48.386Z,3.63
2023-05-15T07:21:43.335Z,3.33
2023-05-15T07:26:43.896Z,3.10
2023-05-15T07:31:45.597Z,3.20
2023-05-15T07:36:38.941Z,3.43
2023-05-15T07:41:33.704Z,3.50
2023-05-15T07:46:27.268Z,4.07
2023-05-15T07:51:21.949Z,3.77
2023-05-15T07:56:15.242Z,3.60
2023-05-15T08:01:08.677Z,3.13
2023-05-15T08:06:01.987Z,3.80
2023-05-15T08:10:56.647Z,3.43
2023-05-15T08:15:49.983Z,3.70
2023-05-15T08:20:43.599Z,3.43
2023-05-15T08:25:37.040Z,3.00
2023-05-15T08:30:31.850Z,3.00
2023-05-15T08:35:25.343Z,2.73
2023-05-15T08:40:25.663Z,2.70
2023-05-15T08:45:29.236Z,2.50
2023-05-15T08:50:25.846Z,2.40
2023-05-15T08:55:19.382Z,2.50
2023-05-15T09:00:15.191Z,2.70
2023-05-15T09:05:10.692Z,2.60
2023-05-15T09:10:06.703Z,2.50
2023-05-15T09:15:12.279Z,2.20
2023-05-15T09:20:08.049Z,2.27
2023-05-15T09:25:03.223Z,2.30
2023-05-15T09:30:09.859Z,1.97
2023-05-15T09:35:03.113Z,2.00
2023-05-15T09:39:56.700Z,2.50
2023-05-15T09:44:50.077Z,2.20
2023-05-15T09:49:47.476Z,2.40
2023-05-15T09:54:41.067Z,3.00
2023-05-15T09:59:34.344Z,3.00
2023-05-15T10:04:27.788Z,3.50
2023-05-15T10:09:22.439Z,2.33
2023-05-15T10:14:21.023Z,2.20
2023-05-15T10:19:15.185Z,2.03
2023-05-15T10:24:09.751Z,2.40
2023-05-15T10:29:09.650Z,2.60
2023-05-15T10:34:03.697Z,2.10
2023-05-15T10:38:59.195Z,1.80
2023-05-15T10:43:55.389Z,2.45
2023-05-15T10:48:50.545Z,2.47
2023-05-15T10:53:44.649Z,2.30
2023-05-15T10:58:37.981Z,2.25
2023-05-15T11:03:48.787Z,2.20
2023-05-15T11:08:45.183Z,2.58
2023-05-15T11:14:15.364Z,2.70
2023-05-15T11:19:23.936Z,2.50
2023-05-15T11:24:18.652Z,2.47
2023-05-15T11:29:21.407Z,2.70
2023-05-15T11:34:15.136Z,2.80
2023-05-15T11:39:12.623Z,6.05
2023-05-15T11:44:07.299Z,2.55
2023-05-15T11:49:01.273Z,2.88
2023-05-15T11:53:56.543Z,2.88
2023-05-15T11:58:51.456Z,2.78
2023-05-15T12:03:50.061Z,2.88
2023-05-15T12:08:43.965Z,2.78
2023-05-15T12:13:37.861Z,2.90
2023-05-15T12:18:32.913Z,2.90
2023-05-15T12:23:29.551Z,2.72
2023-05-15T12:28:23.643Z,2.80
2023-05-15T12:33:17.184Z,2.80
2023-05-15T12:38:16.524Z,3.10
2023-05-15T12:43:12.499Z,2.67
2023-05-15T12:48:07.981Z,2.53
2023-05-15T12:53:05.149Z,2.70
2023-05-15T12:58:00.274Z,2.83
2023-05-15T13:02:58.035Z,3.05
2023-05-15T13:07:52.419Z,3.15
2023-05-15T13:12:47.476Z,3.17
2023-05-15T13:17:41.804Z,3.28
2023-05-15T13:22:36.495Z,2.10
2023-05-15T13:27:29.795Z,1.70
2023-05-15T13:32:24.197Z,2.08
2023-05-15T13:37:17.588Z,1.98
2023-05-15T13:42:12.248Z,1.80
2023-05-15T13:47:06.163Z,1.95
2023-05-15T13:51:59.550Z,1.80
2023-05-15T13:56:52.814Z,2.07
2023-05-15T14:01:48.232Z,1.98
2023-05-15T14:06:41.619Z,1.85
2023-05-15T14:11:35.769Z,1.92
2023-05-15T14:16:29.107Z,1.83
2023-05-15T14:21:24.310Z,1.80
2023-05-15T14:26:17.691Z,1.60
2023-05-15T14:31:11.876Z,1.70
2023-05-15T14:36:05.888Z,1.73
2023-05-15T14:41:00.700Z,1.55
2023-05-15T14:45:54.024Z,1.67
2023-05-15T14:50:47.360Z,1.70
2023-05-15T14:55:40.643Z,1.70
2023-05-15T15:00:35.454Z,1.70
2023-05-15T15:05:28.764Z,2.00
2023-05-15T15:10:22.036Z,1.52
2023-05-15T15:15:15.381Z,1.55
2023-05-15T15:20:12.188Z,1.80
2023-05-15T15:25:06.671Z,1.50
2023-05-15T15:30:00.227Z,1.60
2023-05-15T15:34:53.458Z,1.10
2023-05-15T15:39:48.210Z,1.00
2023-05-15T15:44:41.517Z,1.80
2023-05-15T15:49:34.846Z,1.77
2023-05-15T15:54:29.029Z,2.08
2023-05-15T15:59:23.697Z,2.15
2023-05-15T16:04:17.264Z,2.30
2023-05-15T16:09:10.648Z,2.50
2023-05-15T16:14:04.136Z,2.17
2023-05-15T16:18:58.878Z,2.10
2023-05-15T16:23:52.218Z,2.00
2023-05-15T16:28:45.558Z,1.50
2023-05-15T16:33:38.880Z,1.48
2023-05-15T16:38:33.586Z,1.33
2023-05-15T16:43:26.885Z,1.30
2023-05-15T16:48:20.141Z,1.27
2023-05-15T16:53:14.938Z,1.40
2023-05-15T16:58:09.705Z,1.40
2023-05-15T17:03:03.800Z,1.58
2023-05-15T17:07:57.156Z,1.42
2023-05-15T17:12:50.505Z,1.65
2023-05-15T17:17:45.215Z,1.40
2023-05-15T17:22:38.753Z,1.70
2023-05-15T17:27:32.379Z,2.20
2023-05-15T17:32:25.879Z,2.75
2023-05-15T17:37:20.792Z,2.78
2023-05-15T17:42:14.122Z,2.63
2023-05-15T17:47:08.543Z,2.22
2023-05-15T17:52:01.955Z,2.40
2023-05-15T17:56:56.616Z,2.40
2023-05-15T18:01:50.002Z,2.25
2023-05-15T18:06:43.361Z,2.40
2023-05-15T18:11:36.716Z,2.28
2023-05-15T18:16:32.841Z,2.47
2023-05-15T18:21:26.396Z,2.80
2023-05-15T18:26:19.669Z,2.63
2023-05-15T18:31:12.984Z,2.75
2023-05-15T18:36:08.417Z,3.03
2023-05-15T18:41:05.211Z,2.90
2023-05-15T18:46:01.346Z,3.33
2023-05-15T18:50:55.684Z,2.47
2023-05-15T18:55:50.469Z,2.85
2023-05-15T19:00:43.928Z,2.88
2023-05-15T19:05:41.928Z,3.30
2023-05-15T19:10:35.260Z,2.75
2023-05-15T19:15:29.898Z,3.00
2023-05-15T19:20:23.260Z,3.13
2023-05-15T19:25:16.630Z,2.70
2023-05-15T19:30:11.330Z,3.00
2023-05-15T19:35:06.842Z,3.10
2023-05-15T19:40:00.200Z,3.13
2023-05-15T19:44:53.496Z,3.03
2023-05-15T19:49:46.848Z,2.97
2023-05-15T19:55:03.708Z,2.80
2023-05-15T20:00:01.202Z,2.90
2023-05-15T20:04:54.465Z,3.40
2023-05-15T20:09:52.112Z,3.20
2023-05-15T20:14:52.304Z,3.10
2023-05-15T20:19:59.119Z,3.37
2023-05-15T20:25:01.897Z,3.23
2023-05-15T20:29:55.372Z,3.40
2023-05-15T20:34:50.773Z,3.20
2023-05-15T20:39:44.231Z,4.17
2023-05-15T20:44:39.521Z,3.63
2023-05-15T20:50:04.200Z,3.10
2023-05-15T20:54:57.597Z,3.57
2023-05-15T20:59:52.502Z,3.37
2023-05-15T21:04:48.789Z,3.50
2023-05-15T21:09:43.987Z,4.10
2023-05-15T21:14:37.245Z,3.90
2023-05-15T21:19:31.924Z,4.20
2023-05-15T21:24:25.323Z,3.80
2023-05-15T21:29:18.619Z,3.63
2023-05-15T21:34:12.053Z,4.13
2023-05-15T21:39:06.759Z,3.70
2023-05-15T21:44:00.045Z,3.70
2023-05-15T21:48:53.368Z,2.93
2023-05-15T21:53:46.674Z,3.93
2023-05-15T21:58:41.263Z,3.40
2023-05-15T22:03:34.746Z,3.40
2023-05-15T22:08:28.093Z,3.67
2023-05-15T22:13:21.346Z,3.57
2023-05-15T22:18:15.968Z,3.47
2023-05-15T22:23:09.261Z,3.90
2023-05-15T22:28:02.557Z,3.20
2023-05-15T22:32:56.069Z,3.60
2023-05-15T22:37:50.764Z,4.27
2023-05-15T22:42:44.003Z,3.83
2023-05-15T22:47:37.280Z,4.10
2023-05-15T22:52:30.651Z,4.17
2023-05-15T22:57:26.902Z,4.77
2023-05-15T23:02:20.268Z,4.50
2023-05-15T23:07:13.686Z,4.80
2023-05-15T23:12:08.035Z,4.40
2023-05-15T23:17:02.740Z,4.00
2023-05-15T23:21:56.162Z,4.30
2023-05-15T23:26:49.373Z,4.60
2023-05-15T23:31:43.288Z,4.73
2023-05-15T23:36:38.081Z,4.97
2023-05-15T23:41:31.422Z,5.00
2023-05-15T23:46:24.891Z,5.33
2023-05-15T23:51:18.285Z,5.50
2023-05-15T23:56:12.962Z,5.87
